sensor_id;sensor_type;location;lat;lon;timestamp;temperature;humidity
68098;DHT22;54886;47.036;15.466;2022-08-14T00:01:33;17.74;73.90
68098;DHT22;54886;47.036;15.466;2022-08-14T00:03:59;17.58;76.51
68098;DHT22;54886;47.036;15.466;2022-08-14T00:06:24;17.68;73.13
68098;DHT22;54886;47.036;15.466;2022-08-14T00:08:50;17.71;73.22
68098;DHT22;54886;47.036;15.466;2022-08-14T00:11:15;17.71;75.10
68098;DHT22;54886;47.036;15.466;2022-08-14T00:13:40;17.71;73.03
68098;DHT22;54886;47.036;15.466;2022-08-14T00:16:07;17.68;74.80
68098;DHT22;54886;47.036;15.466;2022-08-14T00:18:34;17.67;72.58
68098;DHT22;54886;47.036;15.466;2022-08-14T00:21:00;17.65;72.12
68098;DHT22;54886;47.036;15.466;2022-08-14T00:23:25;17.61;74.80
68098;DHT22;54886;47.036;15.466;2022-08-14T00:25:53;17.57;71.34
68098;DHT22;54886;47.036;15.466;2022-08-14T00:28:19;17.55;76.30
68098;DHT22;54886;47.036;15.466;2022-08-14T00:30:50;17.48;75.95
68098;DHT22;54886;47.036;15.466;2022-08-14T00:33:16;17.51;72.03
68098;DHT22;54886;47.036;15.466;2022-08-14T00:35:42;17.50;73.68
68098;DHT22;54886;47.036;15.466;2022-08-14T00:38:07;17.45;74.17
68098;DHT22;54886;47.036;15.466;2022-08-14T00:40:33;17.45;75.42
68098;DHT22;54886;47.036;15.466;2022-08-14T00:42:59;17.42;72.34
68098;DHT22;54886;47.036;15.466;2022-08-14T00:45:25;17.38;76.59
68098;DHT22;54886;47.036;15.466;2022-08-14T00:47:50;17.33;72.50
68098;DHT22;54886;47.036;15.466;2022-08-14T00:50:18;17.31;77.01
68098;DHT22;54886;47.036;15.466;2022-08-14T00:52:50;17.24;73.96
68098;DHT22;54886;47.036;15.466;2022-08-14T00:55:17;17.16;77.75
68098;DHT22;54886;47.036;15.466;2022-08-14T00:57:44;17.14;75.86
68098;DHT22;54886;47.036;15.466;2022-08-14T01:00:13;17.19;74.21
68098;DHT22;54886;47.036;15.466;2022-08-14T01:02:43;17.07;78.08
68098;DHT22;54886;47.036;15.466;2022-08-14T01:05:11;17.12;74.13
68098;DHT22;54886;47.036;15.466;2022-08-14T01:07:52;17.10;73.61
68098;DHT22;54886;47.036;15.466;2022-08-14T01:10:19;17.07;77.65
68098;DHT22;54886;47.036;15.466;2022-08-14T01:12:45;17.07;75.03
68098;DHT22;54886;47.036;15.466;2022-08-14T01:15:13;17.09;74.32
68098;DHT22;54886;47.036;15.466;2022-08-14T01:17:41;16.95;77.98
68098;DHT22;54886;47.036;15.466;2022-08-14T01:20:25;17.02;75.02
68098;DHT22;54886;47.036;15.466;2022-08-14T01:23:10;16.96;74.48
68098;DHT22;54886;47.036;15.466;2022-08-14T01:25:37;16.92;77.98
68098;DHT22;54886;47.036;15.466;2022-08-14T01:28:03;16.96;74.90
68098;DHT22;54886;47.036;15.466;2022-08-14T01:30:30;16.99;72.71
68098;DHT22;54886;47.036;15.466;2022-08-14T01:32:56;16.96;77.23
68098;DHT22;54886;47.036;15.466;2022-08-14T01:35:22;16.86;76.45
68098;DHT22;54886;47.036;15.466;2022-08-14T01:37:47;16.96;73.97
68098;DHT22;54886;47.036;15.466;2022-08-14T01:40:13;16.95;74.45
68098;DHT22;54886;47.036;15.466;2022-08-14T01:42:43;16.85;76.27
68098;DHT22;54886;47.036;15.466;2022-08-14T01:45:08;16.89;73.93
68098;DHT22;54886;47.036;15.466;2022-08-14T01:47:38;16.93;73.02
68098;DHT22;54886;47.036;15.466;2022-08-14T01:50:05;16.89;76.18
68098;DHT22;54886;47.036;15.466;2022-08-14T01:52:32;16.89;74.31
68098;DHT22;54886;47.036;15.466;2022-08-14T01:55:04;16.82;75.24
68098;DHT22;54886;47.036;15.466;2022-08-14T01:57:32;16.79;76.26
68098;DHT22;54886;47.036;15.466;2022-08-14T02:00:04;16.72;74.52
68098;DHT22;54886;47.036;15.466;2022-08-14T02:02:30;16.76;73.28
68098;DHT22;54886;47.036;15.466;2022-08-14T02:04:55;16.76;72.19
68098;DHT22;54886;47.036;15.466;2022-08-14T02:07:21;16.79;73.31
68098;DHT22;54886;47.036;15.466;2022-08-14T02:09:46;16.76;73.72
68098;DHT22;54886;47.036;15.466;2022-08-14T02:12:12;16.71;75.65
68098;DHT22;54886;47.036;15.466;2022-08-14T02:14:38;16.58;76.73
68098;DHT22;54886;47.036;15.466;2022-08-14T02:17:04;16.51;77.23
68098;DHT22;54886;47.036;15.466;2022-08-14T02:19:31;16.52;73.43
68098;DHT22;54886;47.036;15.466;2022-08-14T02:21:59;16.57;74.17
68098;DHT22;54886;47.036;15.466;2022-08-14T02:24:27;16.57;73.23
68098;DHT22;54886;47.036;15.466;2022-08-14T02:26:55;16.59;72.95
68098;DHT22;54886;47.036;15.466;2022-08-14T02:29:25;16.57;73.78
68098;DHT22;54886;47.036;15.466;2022-08-14T02:31:53;16.59;73.48
68098;DHT22;54886;47.036;15.466;2022-08-14T02:34:29;16.51;75.93
68098;DHT22;54886;47.036;15.466;2022-08-14T02:37:01;16.40;76.23
68098;DHT22;54886;47.036;15.466;2022-08-14T02:39:28;16.44;75.22
68098;DHT22;54886;47.036;15.466;2022-08-14T02:41:55;16.40;76.02
68098;DHT22;54886;47.036;15.466;2022-08-14T02:44:21;16.38;75.02
68098;DHT22;54886;47.036;15.466;2022-08-14T02:46:48;16.38;72.52
68098;DHT22;54886;47.036;15.466;2022-08-14T02:49:15;16.30;77.18
68098;DHT22;54886;47.036;15.466;2022-08-14T02:51:41;16.24;77.42
68098;DHT22;54886;47.036;15.466;2022-08-14T02:54:08;16.27;74.78
68098;DHT22;54886;47.036;15.466;2022-08-14T02:56:35;16.28;76.54
68098;DHT22;54886;47.036;15.466;2022-08-14T02:59:03;16.27;74.51
68098;DHT22;54886;47.036;15.466;2022-08-14T03:01:31;16.30;73.81
68098;DHT22;54886;47.036;15.466;2022-08-14T03:03:57;16.31;72.78
68098;DHT22;54886;47.036;15.466;2022-08-14T03:06:23;16.25;76.07
68098;DHT22;54886;47.036;15.466;2022-08-14T03:08:49;16.25;73.75
68098;DHT22;54886;47.036;15.466;2022-08-14T03:11:14;16.25;73.45
68098;DHT22;54886;47.036;15.466;2022-08-14T03:13:46;16.20;73.57
68098;DHT22;54886;47.036;15.466;2022-08-14T03:16:14;16.17;76.37
68098;DHT22;54886;47.036;15.466;2022-08-14T03:18:43;16.21;73.19
68098;DHT22;54886;47.036;15.466;2022-08-14T03:21:12;16.09;77.20
68098;DHT22;54886;47.036;15.466;2022-08-14T03:23:40;16.10;75.74
68098;DHT22;54886;47.036;15.466;2022-08-14T03:26:10;16.12;73.39
68098;DHT22;54886;47.036;15.466;2022-08-14T03:28:37;16.09;74.96
68098;DHT22;54886;47.036;15.466;2022-08-14T03:31:05;16.04;77.07
68098;DHT22;54886;47.036;15.466;2022-08-14T03:33:30;16.03;73.40
68098;DHT22;54886;47.036;15.466;2022-08-14T03:35:56;15.99;75.71
68098;DHT22;54886;47.036;15.466;2022-08-14T03:38:21;15.99;74.91
68098;DHT22;54886;47.036;15.466;2022-08-14T03:40:47;15.99;74.38
68098;DHT22;54886;47.036;15.466;2022-08-14T03:43:13;15.96;75.26
68098;DHT22;54886;47.036;15.466;2022-08-14T03:45:39;15.99;74.12
68098;DHT22;54886;47.036;15.466;2022-08-14T03:48:16;16.00;73.08
68098;DHT22;54886;47.036;15.466;2022-08-14T03:50:48;15.96;73.96
68098;DHT22;54886;47.036;15.466;2022-08-14T03:53:17;15.89;77.23
68098;DHT22;54886;47.036;15.466;2022-08-14T03:55:44;15.85;77.54
68098;DHT22;54886;47.036;15.466;2022-08-14T03:58:10;15.86;73.49
68098;DHT22;54886;47.036;15.466;2022-08-14T04:00:37;15.90;74.13
68098;DHT22;54886;47.036;15.466;2022-08-14T04:03:06;15.90;71.80
68098;DHT22;54886;47.036;15.466;2022-08-14T04:05:32;15.93;74.76
68098;DHT22;54886;47.036;15.466;2022-08-14T04:07:58;15.89;75.36
68098;DHT22;54886;47.036;15.466;2022-08-14T04:10:24;15.87;75.79
68098;DHT22;54886;47.036;15.466;2022-08-14T04:12:50;15.92;73.58
68098;DHT22;54886;47.036;15.466;2022-08-14T04:15:15;15.90;74.15
68098;DHT22;54886;47.036;15.466;2022-08-14T04:17:43;15.89;72.74
68098;DHT22;54886;47.036;15.466;2022-08-14T04:20:09;15.92;73.68
68098;DHT22;54886;47.036;15.466;2022-08-14T04:22:34;15.78;77.42
68098;DHT22;54886;47.036;15.466;2022-08-14T04:25:01;15.82;75.20
68098;DHT22;54886;47.036;15.466;2022-08-14T04:27:27;15.85;75.17
68098;DHT22;54886;47.036;15.466;2022-08-14T04:29:53;15.86;74.71
68098;DHT22;54886;47.036;15.466;2022-08-14T04:32:19;15.87;74.53
68098;DHT22;54886;47.036;15.466;2022-08-14T04:34:46;15.87;74.88
68098;DHT22;54886;47.036;15.466;2022-08-14T04:37:12;15.86;73.80
68098;DHT22;54886;47.036;15.466;2022-08-14T04:39:56;15.87;77.73
68098;DHT22;54886;47.036;15.466;2022-08-14T04:42:40;15.87;75.72
68098;DHT22;54886;47.036;15.466;2022-08-14T04:45:26;15.85;79.02
68098;DHT22;54886;47.036;15.466;2022-08-14T04:48:08;15.87;76.83
68098;DHT22;54886;47.036;15.466;2022-08-14T04:50:42;15.87;78.54
68098;DHT22;54886;47.036;15.466;2022-08-14T04:53:09;15.92;78.41
68098;DHT22;54886;47.036;15.466;2022-08-14T04:55:39;15.92;78.64
68098;DHT22;54886;47.036;15.466;2022-08-14T04:58:04;15.96;77.94
68098;DHT22;54886;47.036;15.466;2022-08-14T05:00:30;15.97;78.61
68098;DHT22;54886;47.036;15.466;2022-08-14T05:02:56;16.02;75.29
68098;DHT22;54886;47.036;15.466;2022-08-14T05:05:22;16.06;77.61
68098;DHT22;54886;47.036;15.466;2022-08-14T05:07:50;16.09;74.78
68098;DHT22;54886;47.036;15.466;2022-08-14T05:10:16;16.10;76.61
68098;DHT22;54886;47.036;15.466;2022-08-14T05:12:50;16.16;77.71
68098;DHT22;54886;47.036;15.466;2022-08-14T05:15:17;16.16;77.21
68098;DHT22;54886;47.036;15.466;2022-08-14T05:17:43;16.18;76.16
68098;DHT22;54886;47.036;15.466;2022-08-14T05:20:09;16.23;74.61
68098;DHT22;54886;47.036;15.466;2022-08-14T05:22:36;16.28;79.17
68098;DHT22;54886;47.036;15.466;2022-08-14T05:25:02;16.28;79.32
68098;DHT22;54886;47.036;15.466;2022-08-14T05:27:29;16.34;77.45
68098;DHT22;54886;47.036;15.466;2022-08-14T05:29:54;16.37;80.02
68098;DHT22;54886;47.036;15.466;2022-08-14T05:32:21;16.38;79.44
68098;DHT22;54886;47.036;15.466;2022-08-14T05:34:46;16.41;77.49
68098;DHT22;54886;47.036;15.466;2022-08-14T05:37:12;16.48;77.11
68098;DHT22;54886;47.036;15.466;2022-08-14T05:39:39;16.48;73.16
68098;DHT22;54886;47.036;15.466;2022-08-14T05:42:06;16.54;74.75
68098;DHT22;54886;47.036;15.466;2022-08-14T05:44:32;16.55;75.48
68098;DHT22;54886;47.036;15.466;2022-08-14T05:46:58;16.61;77.24
68098;DHT22;54886;47.036;15.466;2022-08-14T05:49:23;16.68;78.33
68098;DHT22;54886;47.036;15.466;2022-08-14T05:51:48;16.73;77.79
68098;DHT22;54886;47.036;15.466;2022-08-14T05:54:14;16.78;79.19
68098;DHT22;54886;47.036;15.466;2022-08-14T05:56:39;16.79;79.60
68098;DHT22;54886;47.036;15.466;2022-08-14T05:59:05;16.86;78.97
68098;DHT22;54886;47.036;15.466;2022-08-14T06:01:30;16.95;77.44
68098;DHT22;54886;47.036;15.466;2022-08-14T06:03:56;16.96;78.19
68098;DHT22;54886;47.036;15.466;2022-08-14T06:06:21;17.03;77.19
68098;DHT22;54886;47.036;15.466;2022-08-14T06:08:46;17.10;78.40
68098;DHT22;54886;47.036;15.466;2022-08-14T06:11:12;17.12;77.36
68098;DHT22;54886;47.036;15.466;2022-08-14T06:13:39;17.16;79.84
68098;DHT22;54886;47.036;15.466;2022-08-14T06:16:05;17.23;79.46
68098;DHT22;54886;47.036;15.466;2022-08-14T06:18:32;17.28;79.77
68098;DHT22;54886;47.036;15.466;2022-08-14T06:20:57;17.37;78.99
68098;DHT22;54886;47.036;15.466;2022-08-14T06:23:23;17.38;77.16
68098;DHT22;54886;47.036;15.466;2022-08-14T06:25:48;17.45;78.60
68098;DHT22;54886;47.036;15.466;2022-08-14T06:28:18;17.51;78.58
68098;DHT22;54886;47.036;15.466;2022-08-14T06:30:44;17.52;77.60
68098;DHT22;54886;47.036;15.466;2022-08-14T06:33:10;17.58;77.64
68098;DHT22;54886;47.036;15.466;2022-08-14T06:35:35;17.65;78.23
68098;DHT22;54886;47.036;15.466;2022-08-14T06:38:01;17.69;78.55
68098;DHT22;54886;47.036;15.466;2022-08-14T06:40:32;17.76;78.57
68098;DHT22;54886;47.036;15.466;2022-08-14T06:43:00;17.79;73.55
68098;DHT22;54886;47.036;15.466;2022-08-14T06:45:25;17.85;75.08
68098;DHT22;54886;47.036;15.466;2022-08-14T06:47:51;17.89;76.74
68098;DHT22;54886;47.036;15.466;2022-08-14T06:50:19;17.93;76.08
68098;DHT22;54886;47.036;15.466;2022-08-14T06:52:46;17.95;76.13
68098;DHT22;54886;47.036;15.466;2022-08-14T06:55:13;18.00;75.83
68098;DHT22;54886;47.036;15.466;2022-08-14T06:57:44;18.06;78.53
68098;DHT22;54886;47.036;15.466;2022-08-14T07:00:11;18.09;75.00
68098;DHT22;54886;47.036;15.466;2022-08-14T07:02:37;18.14;75.88
68098;DHT22;54886;47.036;15.466;2022-08-14T07:05:22;18.24;76.22
68098;DHT22;54886;47.036;15.466;2022-08-14T07:08:13;18.29;75.90
68098;DHT22;54886;47.036;15.466;2022-08-14T07:10:41;18.34;75.30
68098;DHT22;54886;47.036;15.466;2022-08-14T07:13:09;18.45;77.05
68098;DHT22;54886;47.036;15.466;2022-08-14T07:15:35;18.54;76.10
68098;DHT22;54886;47.036;15.466;2022-08-14T07:18:02;18.59;75.45
68098;DHT22;54886;47.036;15.466;2022-08-14T07:20:28;18.61;75.28
68098;DHT22;54886;47.036;15.466;2022-08-14T07:22:54;18.68;75.38
68098;DHT22;54886;47.036;15.466;2022-08-14T07:25:26;18.75;75.17
68098;DHT22;54886;47.036;15.466;2022-08-14T07:27:51;18.76;74.44
68098;DHT22;54886;47.036;15.466;2022-08-14T07:30:17;18.85;74.70
68098;DHT22;54886;47.036;15.466;2022-08-14T07:32:42;18.92;74.81
68098;DHT22;54886;47.036;15.466;2022-08-14T07:35:08;18.98;73.83
68098;DHT22;54886;47.036;15.466;2022-08-14T07:37:33;19.03;73.71
68098;DHT22;54886;47.036;15.466;2022-08-14T07:40:00;19.10;73.55
68098;DHT22;54886;47.036;15.466;2022-08-14T07:42:26;19.14;73.97
68098;DHT22;54886;47.036;15.466;2022-08-14T07:44:53;19.22;75.20
68098;DHT22;54886;47.036;15.466;2022-08-14T07:47:18;19.30;74.04
68098;DHT22;54886;47.036;15.466;2022-08-14T07:49:58;19.35;73.88
68098;DHT22;54886;47.036;15.466;2022-08-14T07:52:25;19.41;72.25
68098;DHT22;54886;47.036;15.466;2022-08-14T07:54:51;19.44;72.83
68098;DHT22;54886;47.036;15.466;2022-08-14T07:57:17;19.54;71.87
68098;DHT22;54886;47.036;15.466;2022-08-14T07:59:42;19.58;72.62
68098;DHT22;54886;47.036;15.466;2022-08-14T08:02:14;19.69;72.57
68098;DHT22;54886;47.036;15.466;2022-08-14T08:04:43;19.72;72.14
68098;DHT22;54886;47.036;15.466;2022-08-14T08:07:09;19.74;72.59
68098;DHT22;54886;47.036;15.466;2022-08-14T08:09:35;19.85;71.63
68098;DHT22;54886;47.036;15.466;2022-08-14T08:12:02;19.90;70.03
68098;DHT22;54886;47.036;15.466;2022-08-14T08:14:32;19.89;71.00
68098;DHT22;54886;47.036;15.466;2022-08-14T08:16:59;19.99;72.87
68098;DHT22;54886;47.036;15.466;2022-08-14T08:19:24;20.03;71.69
68098;DHT22;54886;47.036;15.466;2022-08-14T08:21:50;20.13;71.66
68098;DHT22;54886;47.036;15.466;2022-08-14T08:24:16;20.17;71.27
68098;DHT22;54886;47.036;15.466;2022-08-14T08:26:41;20.24;70.72
68098;DHT22;54886;47.036;15.466;2022-08-14T08:29:06;20.34;72.05
68098;DHT22;54886;47.036;15.466;2022-08-14T08:31:45;20.41;71.25
68098;DHT22;54886;47.036;15.466;2022-08-14T08:34:11;20.52;71.55
68098;DHT22;54886;47.036;15.466;2022-08-14T08:36:40;20.57;70.65
68098;DHT22;54886;47.036;15.466;2022-08-14T08:39:05;20.64;70.33
68098;DHT22;54886;47.036;15.466;2022-08-14T08:41:46;20.75;70.75
68098;DHT22;54886;47.036;15.466;2022-08-14T08:44:12;20.81;70.61
68098;DHT22;54886;47.036;15.466;2022-08-14T08:46:39;20.96;70.61
68098;DHT22;54886;47.036;15.466;2022-08-14T08:49:06;21.05;70.65
68098;DHT22;54886;47.036;15.466;2022-08-14T08:51:34;21.14;69.51
68098;DHT22;54886;47.036;15.466;2022-08-14T08:54:11;21.24;70.67
68098;DHT22;54886;47.036;15.466;2022-08-14T08:56:40;21.34;69.93
68098;DHT22;54886;47.036;15.466;2022-08-14T08:59:25;21.44;67.46
68098;DHT22;54886;47.036;15.466;2022-08-14T09:04:40;21.57;67.39
68098;DHT22;54886;47.036;15.466;2022-08-14T09:07:08;21.68;65.57
68098;DHT22;54886;47.036;15.466;2022-08-14T09:09:34;21.79;64.67
68098;DHT22;54886;47.036;15.466;2022-08-14T09:12:16;21.84;64.01
68098;DHT22;54886;47.036;15.466;2022-08-14T09:14:42;21.86;63.33
68098;DHT22;54886;47.036;15.466;2022-08-14T09:17:08;21.99;64.08
68098;DHT22;54886;47.036;15.466;2022-08-14T09:19:35;22.14;63.74
68098;DHT22;54886;47.036;15.466;2022-08-14T09:22:02;22.29;62.77
68098;DHT22;54886;47.036;15.466;2022-08-14T09:24:28;22.37;62.57
68098;DHT22;54886;47.036;15.466;2022-08-14T09:26:54;22.50;61.35
68098;DHT22;54886;47.036;15.466;2022-08-14T09:29:19;22.61;59.94
68098;DHT22;54886;47.036;15.466;2022-08-14T09:31:47;22.72;59.07
68098;DHT22;54886;47.036;15.466;2022-08-14T09:39:49;22.92;58.51
68098;DHT22;54886;47.036;15.466;2022-08-14T09:42:33;23.03;56.95
68098;DHT22;54886;47.036;15.466;2022-08-14T09:45:21;23.24;57.13
68098;DHT22;54886;47.036;15.466;2022-08-14T09:47:53;23.30;56.30
68098;DHT22;54886;47.036;15.466;2022-08-14T09:50:30;23.37;57.10
68098;DHT22;54886;47.036;15.466;2022-08-14T09:53:04;23.43;54.65
68098;DHT22;54886;47.036;15.466;2022-08-14T09:55:32;23.46;55.66
68098;DHT22;54886;47.036;15.466;2022-08-14T09:58:15;23.53;54.12
68098;DHT22;54886;47.036;15.466;2022-08-14T10:00:52;23.47;54.63
68098;DHT22;54886;47.036;15.466;2022-08-14T10:03:29;23.63;56.53
68098;DHT22;54886;47.036;15.466;2022-08-14T10:06:11;23.64;55.55
68098;DHT22;54886;47.036;15.466;2022-08-14T10:08:50;23.68;54.70
68098;DHT22;54886;47.036;15.466;2022-08-14T10:11:24;23.71;55.88
68098;DHT22;54886;47.036;15.466;2022-08-14T10:13:56;23.77;55.77
68098;DHT22;54886;47.036;15.466;2022-08-14T10:16:25;23.75;54.66
68098;DHT22;54886;47.036;15.466;2022-08-14T10:19:21;23.85;53.18
68098;DHT22;54886;47.036;15.466;2022-08-14T10:22:03;23.79;53.65
68098;DHT22;54886;47.036;15.466;2022-08-14T10:24:51;23.81;53.71
68098;DHT22;54886;47.036;15.466;2022-08-14T10:27:19;23.86;56.32
68098;DHT22;54886;47.036;15.466;2022-08-14T10:29:52;24.00;53.40
68098;DHT22;54886;47.036;15.466;2022-08-14T10:32:19;24.09;54.00
68098;DHT22;54886;47.036;15.466;2022-08-14T10:34:47;24.11;54.06
68098;DHT22;54886;47.036;15.466;2022-08-14T10:37:14;24.32;54.86
68098;DHT22;54886;47.036;15.466;2022-08-14T10:39:45;24.23;52.94
68098;DHT22;54886;47.036;15.466;2022-08-14T10:42:21;24.23;52.85
68098;DHT22;54886;47.036;15.466;2022-08-14T10:44:46;24.30;52.87
68098;DHT22;54886;47.036;15.466;2022-08-14T10:47:14;24.28;52.00
68098;DHT22;54886;47.036;15.466;2022-08-14T10:49:55;24.28;52.70
68098;DHT22;54886;47.036;15.466;2022-08-14T10:52:26;24.35;53.67
68098;DHT22;54886;47.036;15.466;2022-08-14T10:55:13;24.50;53.26
68098;DHT22;54886;47.036;15.466;2022-08-14T10:57:53;24.61;53.99
68098;DHT22;54886;47.036;15.466;2022-08-14T11:00:21;24.57;53.56
68098;DHT22;54886;47.036;15.466;2022-08-14T11:03:03;24.68;53.26
68098;DHT22;54886;47.036;15.466;2022-08-14T11:05:44;24.61;53.45
68098;DHT22;54886;47.036;15.466;2022-08-14T11:08:11;24.64;53.25
68098;DHT22;54886;47.036;15.466;2022-08-14T11:13:07;24.73;51.87
68098;DHT22;54886;47.036;15.466;2022-08-14T11:15:34;24.74;52.58
68098;DHT22;54886;47.036;15.466;2022-08-14T11:18:00;24.74;52.03
68098;DHT22;54886;47.036;15.466;2022-08-14T11:20:28;24.81;53.73
68098;DHT22;54886;47.036;15.466;2022-08-14T11:22:56;24.83;51.47
68098;DHT22;54886;47.036;15.466;2022-08-14T11:25:24;24.90;51.32
68098;DHT22;54886;47.036;15.466;2022-08-14T11:27:52;24.87;50.70
68098;DHT22;54886;47.036;15.466;2022-08-14T11:30:22;24.92;50.53
68098;DHT22;54886;47.036;15.466;2022-08-14T11:32:49;24.91;50.78
68098;DHT22;54886;47.036;15.466;2022-08-14T11:35:20;24.92;49.76
68098;DHT22;54886;47.036;15.466;2022-08-14T11:38:00;24.94;52.06
68098;DHT22;54886;47.036;15.466;2022-08-14T11:40:33;24.98;50.05
68098;DHT22;54886;47.036;15.466;2022-08-14T11:43:00;24.99;49.73
68098;DHT22;54886;47.036;15.466;2022-08-14T11:45:28;25.05;49.94
68098;DHT22;54886;47.036;15.466;2022-08-14T11:48:20;25.12;50.84
68098;DHT22;54886;47.036;15.466;2022-08-14T11:50:48;25.26;51.16
68098;DHT22;54886;47.036;15.466;2022-08-14T11:53:22;25.40;49.87
68098;DHT22;54886;47.036;15.466;2022-08-14T11:56:04;25.47;49.82
68098;DHT22;54886;47.036;15.466;2022-08-14T11:58:32;25.53;48.47
68098;DHT22;54886;47.036;15.466;2022-08-14T12:01:04;25.59;48.40
68098;DHT22;54886;47.036;15.466;2022-08-14T12:04:13;25.59;49.27
68098;DHT22;54886;47.036;15.466;2022-08-14T12:06:49;25.62;49.43
68098;DHT22;54886;47.036;15.466;2022-08-14T12:09:36;25.71;49.36
68098;DHT22;54886;47.036;15.466;2022-08-14T12:14:52;25.94;48.86
68098;DHT22;54886;47.036;15.466;2022-08-14T12:17:23;26.02;47.66
68098;DHT22;54886;47.036;15.466;2022-08-14T12:19:57;26.04;46.58
68098;DHT22;54886;47.036;15.466;2022-08-14T12:22:37;26.09;49.01
68098;DHT22;54886;47.036;15.466;2022-08-14T12:25:06;26.15;48.07
68098;DHT22;54886;47.036;15.466;2022-08-14T12:27:44;26.19;47.25
68098;DHT22;54886;47.036;15.466;2022-08-14T12:30:34;26.17;47.56
68098;DHT22;54886;47.036;15.466;2022-08-14T12:33:01;26.17;46.73
68098;DHT22;54886;47.036;15.466;2022-08-14T12:35:41;26.29;47.17
68098;DHT22;54886;47.036;15.466;2022-08-14T12:38:07;26.39;48.66
68098;DHT22;54886;47.036;15.466;2022-08-14T12:40:45;26.49;48.07
68098;DHT22;54886;47.036;15.466;2022-08-14T12:43:10;26.43;46.66
68098;DHT22;54886;47.036;15.466;2022-08-14T12:45:36;26.43;46.47
68098;DHT22;54886;47.036;15.466;2022-08-14T12:48:03;26.42;46.93
68098;DHT22;54886;47.036;15.466;2022-08-14T12:50:38;26.43;47.02
68098;DHT22;54886;47.036;15.466;2022-08-14T12:53:06;26.47;47.04
68098;DHT22;54886;47.036;15.466;2022-08-14T12:55:32;26.59;46.71
68098;DHT22;54886;47.036;15.466;2022-08-14T12:58:00;26.66;47.21
68098;DHT22;54886;47.036;15.466;2022-08-14T13:00:29;26.66;47.16
68098;DHT22;54886;47.036;15.466;2022-08-14T13:02:55;26.72;45.73
68098;DHT22;54886;47.036;15.466;2022-08-14T13:05:25;26.84;46.99
68098;DHT22;54886;47.036;15.466;2022-08-14T13:07:51;26.91;46.82
68098;DHT22;54886;47.036;15.466;2022-08-14T13:10:19;26.86;45.65
68098;DHT22;54886;47.036;15.466;2022-08-14T13:12:54;26.87;45.86
68098;DHT22;54886;47.036;15.466;2022-08-14T13:15:20;26.94;44.99
68098;DHT22;54886;47.036;15.466;2022-08-14T13:17:48;27.05;46.39
68098;DHT22;54886;47.036;15.466;2022-08-14T13:20:17;27.16;45.64
68098;DHT22;54886;47.036;15.466;2022-08-14T13:22:45;27.21;44.84
68098;DHT22;54886;47.036;15.466;2022-08-14T13:25:12;27.25;45.58
68098;DHT22;54886;47.036;15.466;2022-08-14T13:27:37;27.21;45.22
68098;DHT22;54886;47.036;15.466;2022-08-14T13:30:06;27.09;44.78
68098;DHT22;54886;47.036;15.466;2022-08-14T13:32:32;27.07;45.17
68098;DHT22;54886;47.036;15.466;2022-08-14T13:34:59;27.09;45.22
68098;DHT22;54886;47.036;15.466;2022-08-14T13:37:25;27.21;45.31
68098;DHT22;54886;47.036;15.466;2022-08-14T13:39:53;27.24;45.02
68098;DHT22;54886;47.036;15.466;2022-08-14T13:42:20;27.29;45.60
68098;DHT22;54886;47.036;15.466;2022-08-14T13:44:50;27.39;45.06
68098;DHT22;54886;47.036;15.466;2022-08-14T13:47:16;27.45;44.91
68098;DHT22;54886;47.036;15.466;2022-08-14T13:49:49;27.42;45.98
68098;DHT22;54886;47.036;15.466;2022-08-14T13:52:16;27.38;45.54
68098;DHT22;54886;47.036;15.466;2022-08-14T13:54:47;27.34;45.31
68098;DHT22;54886;47.036;15.466;2022-08-14T13:57:15;27.35;45.42
68098;DHT22;54886;47.036;15.466;2022-08-14T13:59:46;27.39;45.05
68098;DHT22;54886;47.036;15.466;2022-08-14T14:02:13;27.45;45.16
68098;DHT22;54886;47.036;15.466;2022-08-14T14:04:46;27.52;45.67
68098;DHT22;54886;47.036;15.466;2022-08-14T14:07:14;27.56;44.89
68098;DHT22;54886;47.036;15.466;2022-08-14T14:09:45;27.53;44.14
68098;DHT22;54886;47.036;15.466;2022-08-14T14:12:12;27.64;44.60
68098;DHT22;54886;47.036;15.466;2022-08-14T14:14:38;27.60;44.92
68098;DHT22;54886;47.036;15.466;2022-08-14T14:17:07;27.60;44.96
68098;DHT22;54886;47.036;15.466;2022-08-14T14:19:33;27.64;46.15
68098;DHT22;54886;47.036;15.466;2022-08-14T14:22:03;27.66;44.98
68098;DHT22;54886;47.036;15.466;2022-08-14T14:24:32;27.64;45.00
68098;DHT22;54886;47.036;15.466;2022-08-14T14:27:00;27.67;44.03
68098;DHT22;54886;47.036;15.466;2022-08-14T14:29:29;27.73;44.86
68098;DHT22;54886;47.036;15.466;2022-08-14T14:31:56;27.73;44.91
68098;DHT22;54886;47.036;15.466;2022-08-14T14:34:24;27.76;45.29
68098;DHT22;54886;47.036;15.466;2022-08-14T14:36:49;27.81;43.67
68098;DHT22;54886;47.036;15.466;2022-08-14T14:39:15;27.77;42.76
68098;DHT22;54886;47.036;15.466;2022-08-14T14:41:42;27.81;43.58
68098;DHT22;54886;47.036;15.466;2022-08-14T14:44:10;27.83;43.58
68098;DHT22;54886;47.036;15.466;2022-08-14T14:46:42;27.80;43.08
68098;DHT22;54886;47.036;15.466;2022-08-14T14:49:10;27.77;44.10
68098;DHT22;54886;47.036;15.466;2022-08-14T14:51:39;27.76;44.25
68098;DHT22;54886;47.036;15.466;2022-08-14T14:54:06;27.84;43.47
68098;DHT22;54886;47.036;15.466;2022-08-14T14:56:33;27.84;43.04
68098;DHT22;54886;47.036;15.466;2022-08-14T14:58:58;27.90;41.63
68098;DHT22;54886;47.036;15.466;2022-08-14T15:01:24;27.89;43.55
68098;DHT22;54886;47.036;15.466;2022-08-14T15:03:50;27.90;43.36
68098;DHT22;54886;47.036;15.466;2022-08-14T15:06:20;27.84;42.96
68098;DHT22;54886;47.036;15.466;2022-08-14T15:08:47;27.77;43.44
68098;DHT22;54886;47.036;15.466;2022-08-14T15:11:12;27.76;42.83
68098;DHT22;54886;47.036;15.466;2022-08-14T15:13:38;27.71;43.40
68098;DHT22;54886;47.036;15.466;2022-08-14T15:16:03;27.66;44.45
68098;DHT22;54886;47.036;15.466;2022-08-14T15:18:30;27.62;43.98
68098;DHT22;54886;47.036;15.466;2022-08-14T15:20:57;27.57;43.92
68098;DHT22;54886;47.036;15.466;2022-08-14T15:23:25;27.56;44.01
68098;DHT22;54886;47.036;15.466;2022-08-14T15:25:51;27.56;43.83
68098;DHT22;54886;47.036;15.466;2022-08-14T15:28:17;27.55;44.09
68098;DHT22;54886;47.036;15.466;2022-08-14T15:30:45;27.50;43.73
68098;DHT22;54886;47.036;15.466;2022-08-14T15:33:11;27.47;43.85
68098;DHT22;54886;47.036;15.466;2022-08-14T15:35:36;27.49;44.43
68098;DHT22;54886;47.036;15.466;2022-08-14T15:38:02;27.43;43.04
68098;DHT22;54886;47.036;15.466;2022-08-14T15:40:35;27.41;43.73